createdAt,value
2022-11-05T00:02:28.959Z,2.63
2022-11-05T00:06:49.703Z,2.42
2022-11-05T00:10:51.840Z,2.58
2022-11-05T00:15:12.346Z,2.08
2022-11-05T00:19:15.404Z,2.15
2022-11-05T00:23:36.216Z,2.25
2022-11-05T00:27:38.294Z,2.22
2022-11-05T00:31:40.428Z,2.55
2022-11-05T00:35:43.083Z,2.22
2022-11-05T00:39:45.057Z,2.13
2022-11-05T00:44:06.152Z,2.40
2022-11-05T00:48:27.155Z,2.55
2022-11-05T00:52:47.902Z,2.50
2022-11-05T00:56:50.101Z,2.10
2022-11-05T01:00:57.733Z,2.47
2022-11-05T01:04:59.679Z,2.30
2022-11-05T01:09:02.372Z,2.80
2022-11-05T01:13:08.772Z,1.73
2022-11-05T01:17:14.343Z,2.28
2022-11-05T01:21:17.066Z,2.38
2022-11-05T01:25:19.950Z,2.17
2022-11-05T01:29:22.154Z,2.85
2022-11-05T01:33:24.744Z,2.00
2022-11-05T01:37:26.720Z,2.30
2022-11-05T01:41:28.700Z,2.10
2022-11-05T01:45:30.899Z,2.10
2022-11-05T01:49:34.664Z,2.33
2022-11-05T01:53:40.949Z,2.03
2022-11-05T01:57:43.221Z,2.60
2022-11-05T02:01:45.650Z,2.20
2022-11-05T02:05:50.095Z,2.45
2022-11-05T02:10:11.360Z,2.00
2022-11-05T02:14:13.275Z,1.70
2022-11-05T02:18:51.646Z,1.98
2022-11-05T02:23:23.057Z,1.60
2022-11-05T02:27:58.990Z,1.83
2022-11-05T02:32:35.543Z,1.67
2022-11-05T02:37:01.186Z,1.50
2022-11-05T02:41:32.952Z,1.42
2022-11-05T02:45:48.743Z,1.52
2022-11-05T02:50:14.520Z,1.30
2022-11-05T02:54:31.982Z,1.52
2022-11-05T02:58:35.697Z,1.40
2022-11-05T03:02:38.151Z,1.90
2022-11-05T03:06:48.690Z,2.80
2022-11-05T03:11:13.302Z,1.75
2022-11-05T03:15:33.853Z,2.17
2022-11-05T03:19:50.193Z,1.80
2022-11-05T03:23:59.159Z,1.70
2022-11-05T03:28:06.783Z,1.65
2022-11-05T03:32:11.445Z,1.58
2022-11-05T03:40:26.532Z,1.20
2022-11-05T03:44:33.136Z,1.58
2022-11-05T03:48:41.519Z,1.33
2022-11-05T03:52:54.891Z,1.55
2022-11-05T03:56:56.825Z,1.60
2022-11-05T04:01:02.295Z,1.42
2022-11-05T04:05:05.408Z,2.00
2022-11-05T04:09:26.269Z,2.40
2022-11-05T04:13:28.609Z,1.55
2022-11-05T04:17:30.572Z,1.75
2022-11-05T04:21:51.041Z,2.13
2022-11-05T04:25:53.064Z,2.50
2022-11-05T04:30:13.715Z,3.83
2022-11-05T04:34:16.644Z,7.22
2022-11-05T04:38:20.276Z,5.85
2022-11-05T04:42:22.572Z,5.37
2022-11-05T04:46:25.053Z,4.85
2022-11-05T04:50:27.112Z,2.97
2022-11-05T04:54:29.149Z,2.88
2022-11-05T04:58:31.071Z,2.10
2022-11-05T05:02:33.958Z,2.28
2022-11-05T05:06:36.461Z,2.80
2022-11-05T05:10:38.439Z,3.92
2022-11-05T05:14:40.453Z,3.90
2022-11-05T05:18:46.209Z,2.85
2022-11-05T05:22:55.205Z,3.17
2022-11-05T05:26:57.294Z,3.53
2022-11-05T05:31:00.791Z,3.75
2022-11-05T05:35:03.465Z,3.53
2022-11-05T05:39:07.402Z,3.50
2022-11-05T05:43:09.678Z,3.42
2022-11-05T05:47:11.889Z,3.28
2022-11-05T05:51:13.887Z,3.40
2022-11-05T05:55:16.270Z,3.33
2022-11-05T05:59:18.226Z,3.55
2022-11-05T06:03:20.828Z,4.68
2022-11-05T06:07:23.154Z,3.50
2022-11-05T06:11:25.349Z,3.08
2022-11-05T06:20:11.950Z,1.50
2022-11-05T06:24:13.942Z,1.70
2022-11-05T06:28:15.967Z,1.60
2022-11-05T06:32:17.893Z,1.65
2022-11-05T06:36:20.800Z,1.20
2022-11-05T06:40:22.833Z,1.48
2022-11-05T06:44:24.769Z,0.90
2022-11-05T06:48:26.756Z,0.95
2022-11-05T06:52:31.277Z,1.00
2022-11-05T06:56:33.235Z,1.10
2022-11-05T07:00:35.300Z,0.95
2022-11-05T07:04:37.539Z,0.90
2022-11-05T07:08:39.626Z,1.00
2022-11-05T07:12:41.915Z,1.25
2022-11-05T07:16:44.101Z,1.00
2022-11-05T07:20:46.101Z,0.90
2022-11-05T07:24:49.494Z,1.08
2022-11-05T07:28:51.461Z,0.95
2022-11-05T07:32:53.700Z,1.20
2022-11-05T07:36:57.579Z,1.42
2022-11-05T07:41:01.833Z,2.25
2022-11-05T07:45:06.192Z,1.10
2022-11-05T07:49:08.390Z,1.42
2022-11-05T07:53:13.505Z,1.58
2022-11-05T07:57:16.336Z,1.30
2022-11-05T08:01:18.556Z,1.35
2022-11-05T08:05:20.813Z,1.20
2022-11-05T08:09:22.949Z,0.93
2022-11-05T08:13:25.235Z,1.33
2022-11-05T08:17:27.314Z,1.33
2022-11-05T08:21:29.264Z,0.90
2022-11-05T08:25:32.031Z,0.77
2022-11-05T08:29:34.009Z,0.88
2022-11-05T08:33:35.977Z,1.20
2022-11-05T08:37:37.968Z,1.08
2022-11-05T08:41:40.682Z,1.50
2022-11-05T08:45:42.970Z,1.70
2022-11-05T08:49:45.016Z,1.27
2022-11-05T08:53:47.040Z,1.00
2022-11-05T08:57:54.678Z,0.90
2022-11-05T09:01:56.862Z,0.80
2022-11-05T09:05:59.363Z,0.60
2022-11-05T09:10:02.053Z,0.90
2022-11-05T09:14:04.633Z,2.08
2022-11-05T09:18:07.089Z,1.95
2022-11-05T09:22:12.669Z,1.40
2022-11-05T09:26:15.025Z,0.80
2022-11-05T09:30:17.047Z,0.90
2022-11-05T09:34:19.055Z,0.90
2022-11-05T09:38:21.106Z,0.75
2022-11-05T09:42:28.846Z,0.77
2022-11-05T09:46:43.836Z,0.65
2022-11-05T09:50:47.623Z,1.10
2022-11-05T09:54:50.502Z,1.08
2022-11-05T09:58:58.284Z,0.63
2022-11-05T10:03:06.327Z,0.70
2022-11-05T10:07:15.925Z,0.63
2022-11-05T10:11:25.171Z,0.60
2022-11-05T10:15:37.389Z,0.80
2022-11-05T10:19:54.688Z,0.50
2022-11-05T10:23:57.314Z,0.57
2022-11-05T10:28:00.374Z,0.40
2022-11-05T10:32:05.868Z,0.68
2022-11-05T10:36:34.979Z,0.75
2022-11-05T10:41:01.703Z,0.50
2022-11-05T10:45:12.657Z,0.77
2022-11-05T10:49:36.294Z,0.90
2022-11-05T10:53:39.713Z,0.63
2022-11-05T10:57:42.380Z,0.83
2022-11-05T11:01:44.665Z,0.45
2022-11-05T11:05:46.857Z,0.70
2022-11-05T11:09:50.142Z,0.35
2022-11-05T11:13:59.595Z,0.60
2022-11-05T11:18:33.526Z,0.40
2022-11-05T11:22:36.856Z,0.38
2022-11-05T11:26:40.629Z,0.75
2022-11-05T11:30:51.886Z,1.02
2022-11-05T11:34:55.295Z,0.70
2022-11-05T11:39:02.437Z,0.20
2022-11-05T11:43:14.489Z,0.65
2022-11-05T11:47:19.792Z,0.47
2022-11-05T11:51:32.614Z,0.38
2022-11-05T11:55:34.588Z,0.40
2022-11-05T12:00:06.703Z,0.38
2022-11-05T12:04:19.762Z,0.45
2022-11-05T12:08:35.674Z,0.47
2022-11-05T12:13:02.763Z,0.35
2022-11-05T12:17:25.955Z,0.38
2022-11-05T12:21:56.169Z,0.50
2022-11-05T12:26:33.096Z,0.60
2022-11-05T12:31:07.451Z,0.43
2022-11-05T12:35:48.235Z,0.27
2022-11-05T12:40:08.496Z,0.68
2022-11-05T12:44:24.147Z,0.40
2022-11-05T12:49:04.678Z,0.40
2022-11-05T12:53:47.171Z,0.30
2022-11-05T12:57:55.266Z,0.52
2022-11-05T13:02:38.675Z,0.50
2022-11-05T13:06:47.052Z,0.77
2022-11-05T13:10:55.706Z,0.20
2022-11-05T13:15:13.934Z,0.20
2022-11-05T13:19:16.482Z,0.40
2022-11-05T13:23:21.737Z,0.40
2022-11-05T13:27:38.063Z,0.30
2022-11-05T13:31:52.539Z,0.50
2022-11-05T13:40:46.579Z,0.28
2022-11-05T13:44:57.950Z,0.40
2022-11-05T13:49:21.286Z,0.40
2022-11-05T13:53:35.857Z,0.28
2022-11-05T14:02:01.519Z,0.40
2022-11-05T14:06:07.009Z,0.32
2022-11-05T14:10:46.955Z,0.30
2022-11-05T14:14:59.115Z,0.40
2022-11-05T14:19:19.749Z,0.30
2022-11-05T14:23:24.487Z,0.30
2022-11-05T14:27:29.427Z,0.32
2022-11-05T14:36:21.381Z,0.25
2022-11-05T14:40:26.393Z,0.13
2022-11-05T14:44:30.005Z,0.43
2022-11-05T14:48:41.258Z,0.33
2022-11-05T14:53:04.694Z,0.52
2022-11-05T14:57:06.790Z,1.80
2022-11-05T15:01:30.094Z,0.20
2022-11-05T15:05:34.919Z,0.38
2022-11-05T15:09:41.548Z,0.43
2022-11-05T15:14:05.686Z,0.40
2022-11-05T15:18:28.189Z,0.52
2022-11-05T15:22:34.756Z,0.40
2022-11-05T15:26:46.383Z,0.40
2022-11-05T15:31:16.105Z,0.40
2022-11-05T15:35:28.089Z,0.30
2022-11-05T15:39:38.594Z,0.32
2022-11-05T15:43:47.841Z,0.40
2022-11-05T15:47:50.071Z,0.40
2022-11-05T15:51:52.096Z,0.32
2022-11-05T15:55:58.456Z,0.55
2022-11-05T16:00:05.542Z,0.40
2022-11-05T16:04:29.899Z,0.73
2022-11-05T16:08:32.037Z,0.85
2022-11-05T16:12:36.335Z,0.60
2022-11-05T16:16:38.370Z,0.57
2022-11-05T16:20:40.390Z,0.52
2022-11-05T16:24:43.320Z,0.40
2022-11-05T16:28:50.778Z,0.20
2022-11-05T16:32:53.110Z,0.30
2022-11-05T16:36:57.123Z,0.30
2022-11-05T16:41:00.368Z,0.30
2022-11-05T16:45:02.398Z,0.52
2022-11-05T16:49:04.315Z,0.40
2022-11-05T16:53:06.854Z,0.20
2022-11-05T16:57:39.376Z,0.30
2022-11-05T17:01:43.184Z,1.83
2022-11-05T17:05:45.860Z,2.30
2022-11-05T17:09:48.006Z,2.78
2022-11-05T17:13:51.998Z,1.23
2022-11-05T17:17:55.354Z,0.98
2022-11-05T17:21:57.761Z,0.80
2022-11-05T17:26:06.415Z,0.60
2022-11-05T17:30:10.113Z,0.50
2022-11-05T17:34:12.157Z,0.77
2022-11-05T17:38:14.479Z,1.33
2022-11-05T17:42:16.555Z,0.52
2022-11-05T17:46:20.199Z,0.85
2022-11-05T17:50:22.523Z,1.33
2022-11-05T17:54:24.548Z,1.38
2022-11-05T17:58:26.553Z,0.50
2022-11-05T18:02:29.642Z,0.80
2022-11-05T18:06:32.196Z,0.55
2022-11-05T18:10:36.866Z,0.40
2022-11-05T18:14:39.096Z,0.20
2022-11-05T18:18:41.090Z,0.50
2022-11-05T18:22:44.087Z,0.35
2022-11-05T18:26:46.333Z,2.50
2022-11-05T18:30:48.394Z,2.80
2022-11-05T18:34:50.528Z,1.10
2022-11-05T18:38:53.222Z,0.90
2022-11-05T18:42:55.237Z,0.30
2022-11-05T18:46:58.661Z,0.35
2022-11-05T18:51:02.187Z,0.73
2022-11-05T18:55:04.635Z,0.35
2022-11-05T18:59:35.098Z,0.50
2022-11-05T19:03:28.708Z,0.40
2022-11-05T19:07:30.892Z,0.22
2022-11-05T19:11:33.394Z,0.30
2022-11-05T19:15:35.424Z,1.52
2022-11-05T19:19:37.907Z,0.85
2022-11-05T19:23:39.931Z,3.53
2022-11-05T19:27:43.714Z,5.40
2022-11-05T19:31:45.828Z,4.75
2022-11-05T19:35:47.852Z,4.25
2022-11-05T19:39:49.925Z,6.45
2022-11-05T19:43:54.291Z,5.30
2022-11-05T19:47:56.404Z,5.30
2022-11-05T19:51:58.415Z,5.10
2022-11-05T19:56:08.201Z,5.50
2022-11-05T20:00:10.987Z,5.85
2022-11-05T20:04:13.627Z,5.90
2022-11-05T20:08:15.766Z,5.40
2022-11-05T20:12:18.098Z,4.85
2022-11-05T20:16:27.295Z,5.28
2022-11-05T20:20:29.523Z,5.50
2022-11-05T20:24:31.631Z,4.35
2022-11-05T20:28:35.497Z,5.00
2022-11-05T20:32:37.574Z,5.10
2022-11-05T20:36:40.074Z,6.30
2022-11-05T20:40:42.256Z,5.32
2022-11-05T20:44:44.229Z,5.30
2022-11-05T20:48:46.618Z,5.20
2022-11-05T20:52:49.103Z,5.88
2022-11-05T20:56:51.286Z,6.90
2022-11-05T21:00:55.956Z,5.53
2022-11-05T21:04:58.585Z,5.47
2022-11-05T21:09:01.414Z,5.13
2022-11-05T21:13:03.404Z,5.07
2022-11-05T21:17:07.726Z,4.82
2022-11-05T21:21:13.463Z,5.45
2022-11-05T21:25:15.711Z,4.35
2022-11-05T21:29:18.739Z,5.40
2022-11-05T21:33:20.790Z,4.78
2022-11-05T21:37:22.831Z,4.60
2022-11-05T21:41:25.334Z,5.57
2022-11-05T21:45:27.534Z,4.95
2022-11-05T21:49:29.973Z,3.65
2022-11-05T21:53:50.486Z,3.53
2022-11-05T21:58:11.583Z,3.33
2022-11-05T22:02:19.627Z,4.57
2022-11-05T22:06:21.738Z,4.65
2022-11-05T22:10:23.841Z,4.80
2022-11-05T22:14:26.524Z,4.53
2022-11-05T22:18:28.564Z,4.32
2022-11-05T22:22:30.594Z,4.75
2022-11-05T22:26:32.993Z,3.95
2022-11-05T22:30:36.716Z,2.55
2022-11-05T22:34:39.424Z,3.17
2022-11-05T22:38:41.649Z,2.47
2022-11-05T22:42:44.192Z,2.58
2022-11-05T22:46:46.412Z,2.88
2022-11-05T22:50:48.481Z,2.17
2022-11-05T22:54:50.574Z,1.77
2022-11-05T22:58:52.997Z,2.33
2022-11-05T23:02:55.148Z,1.83
2022-11-05T23:07:15.584Z,1.20
2022-11-05T23:11:41.325Z,1.70
2022-11-05T23:16:01.831Z,1.23
2022-11-05T23:20:24.805Z,1.58
2022-11-05T23:24:27.072Z,2.70
2022-11-05T23:28:29.144Z,1.20
2022-11-05T23:32:32.310Z,1.98
2022-11-05T23:36:52.881Z,2.63
2022-11-05T23:41:13.462Z,1.65
2022-11-05T23:45:34.137Z,1.40
2022-11-05T23:49:36.115Z,1.85
2022-11-05T23:53:40.212Z,1.63
2022-11-05T23:57:42.302Z,1.58
